Time;durP1;ratioP1;P1;durP2;ratioP2;P2;SDS_P1;SDS_P2;PMS_P1;PMS_P2;Temp;Humidity;BMP_temperature;BMP_pressure;BME280_temperature;BME280_humidity;BME280_pressure;Samples;Min_cycle;Max_cycle;Signal;HPM_P1;HPM_P2
2022/09/05 00:00:42;;;;;;;2.30;1.40;;;;;;;16.96;62.39;101977.50;2063495;28;26352;-71
2022/09/05 00:02:03;;;;;;;5.00;1.85;;;;;;;16.98;62.57;101985.56;2064610;28;23110;-73
2022/09/05 00:03:46;;;;;;;3.20;1.83;;;;;;;16.95;62.51;101982.97;2071515;28;29839;-73
2022/09/05 00:05:29;;;;;;;3.05;1.75;;;;;;;16.95;62.00;101985.66;2072174;28;20038;-70
2022/09/05 00:06:38;;;;;;;5.10;1.70;;;;;;;16.95;62.46;101985.66;2072277;28;23546;-73
2022/09/05 00:08:06;;;;;;;3.23;1.80;;;;;;;16.92;62.23;101978.56;2063096;28;28674;-71
2022/09/05 00:09:46;;;;;;;3.83;1.60;;;;;;;16.92;61.87;101985.75;2068459;28;27430;-71
2022/09/05 00:11:04;;;;;;;3.85;1.98;;;;;;;16.91;61.97;101984.88;2038223;29;28233;-73
2022/09/05 00:12:29;;;;;;;4.25;1.50;;;;;;;16.90;62.78;101976.81;2063440;28;20050;-73
2022/09/05 00:13:42;;;;;;;4.18;1.95;;;;;;;16.90;62.42;101977.69;2063301;28;28600;-71
2022/09/05 00:15:19;;;;;;;2.70;1.90;;;;;;;16.91;62.08;101979.47;2057293;28;26154;-71
2022/09/05 00:17:21;;;;;;;4.45;2.05;;;;;;;16.90;62.12;101987.63;2068938;28;29265;-71
2022/09/05 00:18:48;;;;;;;3.63;1.42;;;;;;;16.90;61.70;101983.09;2054645;28;20190;-72
2022/09/05 00:20:26;;;;;;;5.10;1.80;;;;;;;16.89;62.47;101975.94;2057193;28;20062;-71
2022/09/05 00:22:22;;;;;;;3.50;1.65;;;;;;;16.91;62.67;101978.59;2072193;28;20863;-72
2022/09/05 00:24:38;;;;;;;3.70;2.05;;;;;;;16.88;62.24;101981.38;2072508;28;20054;-72
2022/09/05 00:26:08;;;;;;;4.97;1.83;;;;;;;16.87;61.93;101988.63;2072498;28;20077;-71
2022/09/05 00:27:29;;;;;;;3.58;1.70;;;;;;;16.88;62.20;101978.69;2063218;28;20930;-72
2022/09/05 00:28:58;;;;;;;;;;;;;;;16.85;62.66;101978.78;2067017;28;20038;-72
2022/09/05 00:30:20;;;;;;;3.70;1.15;;;;;;;16.83;62.59;101980.63;2076450;28;22378;-71
2022/09/05 00:32:05;;;;;;;4.60;1.85;;;;;;;16.82;62.26;101982.44;2071367;28;20034;-73
2022/09/05 00:33:36;;;;;;;5.30;1.77;;;;;;;16.79;62.55;101980.72;2077314;28;26182;-73
2022/09/05 00:35:07;;;;;;;6.00;1.80;;;;;;;16.78;62.63;101978.09;2079973;28;27802;-73
2022/09/05 00:36:27;;;;;;;;;;;;;;;16.76;62.72;101980.84;2080909;28;20034;-73
2022/09/05 00:37:38;;;;;;;4.00;1.77;;;;;;;16.80;61.93;101981.63;2071346;28;19928;-72
2022/09/05 00:38:55;;;;;;;2.85;1.50;;;;;;;16.77;62.93;101971.75;2076369;28;31587;-73
2022/09/05 00:40:40;;;;;;;2.05;1.30;;;;;;;16.76;61.99;101974.50;2079463;28;20097;-73
2022/09/05 00:41:43;;;;;;;3.55;1.35;;;;;;;16.75;62.37;101970.94;2046032;28;27960;-73
2022/09/05 00:42:51;;;;;;;3.80;1.40;;;;;;;16.75;62.22;101968.22;2084485;28;34582;-73
2022/09/05 00:43:56;;;;;;;5.28;1.90;;;;;;;16.75;62.24;101972.75;2079091;28;32114;-73
2022/09/05 00:45:04;;;;;;;3.45;1.60;;;;;;;16.73;62.80;101971.94;2072001;28;28439;-73
2022/09/05 00:46:21;;;;;;;3.67;1.65;;;;;;;16.71;62.26;101971.09;2072210;28;30132;-73
2022/09/05 00:47:43;;;;;;;2.25;1.48;;;;;;;16.72;62.48;101972.84;2081864;28;33520;-73
2022/09/05 00:48:51;;;;;;;3.25;1.80;;;;;;;16.70;62.49;101975.59;2078752;28;31844;-73
2022/09/05 00:50:05;;;;;;;4.57;1.60;;;;;;;16.73;62.42;101972.81;2079420;28;33620;-72
2022/09/05 00:51:29;;;;;;;4.00;1.58;;;;;;;16.72;62.43;101965.63;2087777;28;33808;-73
2022/09/05 00:52:56;;;;;;;2.28;1.50;;;;;;;16.69;62.27;101976.56;2088299;28;27932;-73
2022/09/05 00:54:36;;;;;;;2.75;1.40;;;;;;;16.68;62.36;101971.19;2088038;28;20992;-73
2022/09/05 00:55:50;;;;;;;2.63;1.33;;;;;;;16.68;62.47;101973.91;2070656;28;26487;-73
2022/09/05 00:57:45;;;;;;;3.75;1.60;;;;;;;16.66;62.31;101971.22;2079741;28;20038;-73
2022/09/05 00:59:08;;;;;;;4.65;1.73;;;;;;;16.66;62.78;101975.75;2088079;28;38039;-73
2022/09/05 01:00:57;;;;;;;4.57;1.42;;;;;;;16.66;62.56;101967.66;2073336;28;20053;-73
2022/09/05 01:02:30;;;;;;;5.10;1.60;;;;;;;16.64;62.39;101962.28;2071522;28;25699;-72
2022/09/05 01:04:14;;;;;;;4.40;1.27;;;;;;;16.65;62.71;101968.56;2071194;28;36306;-73
2022/09/05 01:05:48;;;;;;;3.10;1.60;;;;;;;16.64;63.01;101970.41;2062766;28;36377;-72
2022/09/05 01:07:18;;;;;;;2.45;1.50;;;;;;;16.62;63.00;101961.47;2072233;28;20988;-73
2022/09/05 01:08:49;;;;;;;2.95;1.70;;;;;;;16.65;62.34;101961.34;2071281;28;29576;-72
2022/09/05 01:10:23;;;;;;;2.72;1.20;;;;;;;16.64;62.80;101967.69;2071828;28;20034;-72
2022/09/05 01:11:26;;;;;;;3.72;1.75;;;;;;;16.65;62.73;101961.34;2071635;28;27885;-73
2022/09/05 01:12:49;;;;;;;3.00;1.50;;;;;;;16.60;62.64;101956.09;2071426;28;20092;-72
2022/09/05 01:14:27;;;;;;;3.67;1.42;;;;;;;16.59;62.51;101956.13;2062180;28;38670;-73
2022/09/05 01:15:48;;;;;;;2.75;1.40;;;;;;;16.61;62.88;101962.38;2070417;28;24862;-73
2022/09/05 01:17:02;;;;;;;3.90;1.50;;;;;;;16.58;62.29;101957.06;2062685;28;31576;-72
2022/09/05 01:18:28;;;;;;;1.48;1.17;;;;;;;16.57;62.82;101964.28;2067513;28;21040;-73
2022/09/05 01:20:26;;;;;;;4.28;1.50;;;;;;;16.59;62.42;101967.81;2062617;28;31996;-72
2022/09/05 01:21:52;;;;;;;3.80;1.50;;;;;;;16.59;62.88;101961.53;2048498;28;24096;-73
2022/09/05 01:23:03;;;;;;;2.75;1.50;;;;;;;16.59;62.50;101958.84;2061856;28;31091;-73
2022/09/05 01:24:31;;;;;;;4.93;1.40;;;;;;;16.60;62.31;101956.09;2066986;28;29680;-72
2022/09/05 01:26:07;;;;;;;2.08;1.50;;;;;;;16.63;62.66;101962.34;2062731;28;21365;-72
2022/09/05 01:27:29;;;;;;;2.88;1.45;;;;;;;16.57;62.61;101964.28;2061454;28;32764;-72
2022/09/05 01:28:46;;;;;;;2.20;1.20;;;;;;;16.57;62.41;101960.72;2066443;28;25308;-72
2022/09/05 01:30:14;;;;;;;2.80;1.50;;;;;;;16.55;62.80;101958.06;2077046;28;20045;-73
2022/09/05 01:31:43;;;;;;;2.78;1.40;;;;;;;16.53;62.82;101964.47;2079618;28;23422;-73
2022/09/05 01:33:27;;;;;;;2.72;1.52;;;;;;;16.52;62.76;101959.97;2070935;28;25289;-73
2022/09/05 01:35:20;;;;;;;3.63;1.30;;;;;;;16.49;62.68;101960.06;2077215;28;20216;-72
2022/09/05 01:36:49;;;;;;;3.70;1.42;;;;;;;16.49;63.25;101965.47;2050751;28;28439;-72
2022/09/05 01:38:39;;;;;;;3.03;1.30;;;;;;;16.50;62.55;101972.66;2066146;28;26163;-73
2022/09/05 01:40:06;;;;;;;3.67;1.42;;;;;;;16.49;63.40;101963.66;2062128;28;25863;-73
2022/09/05 01:41:41;;;;;;;1.70;1.15;;;;;;;16.47;62.78;101957.41;2071508;28;29677;-73
2022/09/05 01:42:59;;;;;;;3.60;1.40;;;;;;;16.48;62.58;101961.00;2071433;28;32404;-73
2022/09/05 01:44:39;;;;;;;2.17;1.40;;;;;;;16.47;63.14;101970.91;2070003;28;37509;-73
2022/09/05 01:46:07;;;;;;;2.90;1.50;;;;;;;16.43;63.18;101963.84;2063515;28;36416;-73
2022/09/05 01:47:58;;;;;;;2.20;1.20;;;;;;;16.41;63.35;101968.41;2063082;28;20165;-72
2022/09/05 01:49:40;;;;;;;2.75;1.00;;;;;;;16.46;63.23;101966.47;2071698;28;26239;-72
2022/09/05 01:51:08;;;;;;;2.08;1.05;;;;;;;16.46;63.03;101968.28;2071473;28;27756;-73
2022/09/05 01:52:37;;;;;;;3.33;1.20;;;;;;;16.42;63.05;101973.78;2071286;28;28747;-73
2022/09/05 01:53:56;;;;;;;2.15;1.45;;;;;;;16.42;62.79;101965.66;2054568;28;27551;-72
2022/09/05 01:55:39;;;;;;;2.70;1.30;;;;;;;16.45;63.36;101963.78;2056938;28;34016;-73
2022/09/05 01:57:37;;;;;;;2.67;1.33;;;;;;;16.43;63.37;101966.53;2071895;28;20043;-72
2022/09/05 01:58:44;;;;;;;1.95;1.25;;;;;;;16.43;62.95;101955.72;2061889;28;33140;-72
2022/09/05 02:00:12;;;;;;;3.35;1.30;;;;;;;16.44;63.10;101957.50;2070945;28;29476;-73
2022/09/05 02:02:21;;;;;;;2.85;1.48;;;;;;;16.45;63.32;101958.38;2079649;28;29764;-73
2022/09/05 02:03:32;;;;;;;2.72;1.27;;;;;;;16.44;63.20;101962.00;2053431;28;32069;-72
2022/09/05 02:05:17;;;;;;;1.95;1.40;;;;;;;16.41;63.08;101953.06;2053774;28;29525;-73
2022/09/05 02:06:42;;;;;;;2.22;1.52;;;;;;;16.41;62.91;101953.06;2053392;28;33183;-72
2022/09/05 02:08:10;;;;;;;1.95;1.30;;;;;;;16.40;63.12;101951.31;2054294;28;21154;-72
2022/09/05 02:09:40;;;;;;;2.08;1.23;;;;;;;16.39;63.37;101954.94;2077153;28;35663;-72
2022/09/05 02:11:01;;;;;;;4.95;1.65;;;;;;;16.39;62.96;101960.34;2079249;28;32919;-72
2022/09/05 02:12:33;;;;;;;4.03;1.13;;;;;;;16.38;62.97;101958.59;2070681;28;27239;-72
2022/09/05 02:13:34;;;;;;;2.90;1.42;;;;;;;16.38;63.34;101952.28;2068406;28;29869;-73
2022/09/05 02:15:02;;;;;;;4.18;1.77;;;;;;;16.37;63.08;101958.63;2072960;28;23625;-72
2022/09/05 02:16:19;;;;;;;2.58;1.50;;;;;;;16.36;63.35;101955.03;2079592;28;27715;-73
2022/09/05 02:17:50;;;;;;;2.20;1.40;;;;;;;16.36;62.94;101960.44;2079655;28;30501;-75
2022/09/05 02:19:13;;;;;;;1.98;1.30;;;;;;;16.34;63.01;101962.31;2079157;28;27795;-72
2022/09/05 02:20:51;;;;;;;1.95;1.20;;;;;;;16.34;63.20;101959.59;2079442;28;28515;-72
2022/09/05 02:22:04;;;;;;;2.33;1.70;;;;;;;16.38;63.55;101952.28;2070131;28;32566;-73
2022/09/05 02:23:44;;;;;;;4.15;1.27;;;;;;;16.36;63.04;101955.03;2073937;28;20065;-73
2022/09/05 02:25:00;;;;;;;2.90;1.10;;;;;;;16.34;63.19;101965.00;2070779;28;27850;-73
2022/09/05 02:26:34;;;;;;;3.60;1.40;;;;;;;16.35;62.97;101958.69;2069519;28;24345;-72
2022/09/05 02:27:45;;;;;;;2.35;1.27;;;;;;;16.32;63.63;101955.19;2068902;28;25739;-73
2022/09/05 02:29:23;;;;;;;2.63;1.30;;;;;;;16.32;63.39;101957.88;2070772;28;20820;-73
2022/09/05 02:30:38;;;;;;;2.08;1.30;;;;;;;16.29;63.43;101961.56;2062136;28;27569;-71
2022/09/05 02:31:55;;;;;;;2.83;1.45;;;;;;;16.26;63.56;101961.66;2068690;28;20053;-71
2022/09/05 02:33:18;;;;;;;4.35;1.75;;;;;;;16.29;63.41;101966.09;2063734;28;32988;-71
2022/09/05 02:34:38;;;;;;;2.55;1.48;;;;;;;16.27;63.79;101965.25;2068579;28;20214;-71
2022/09/05 02:35:46;;;;;;;1.95;1.40;;;;;;;16.25;63.45;101951.78;2063932;28;25476;-71
2022/09/05 02:37:11;;;;;;;2.42;1.67;;;;;;;16.27;63.68;101965.25;2058435;28;28104;-71
2022/09/05 02:38:42;;;;;;;1.70;1.48;;;;;;;16.25;64.12;101957.19;2059666;28;34934;-71
2022/09/05 02:40:22;;;;;;;3.67;1.40;;;;;;;16.25;63.99;101961.72;2088825;28;20447;-71
2022/09/05 02:42:11;;;;;;;1.75;1.27;;;;;;;16.25;63.49;101962.59;2079670;28;20045;-71
2022/09/05 02:43:51;;;;;;;2.55;1.60;;;;;;;16.21;63.62;101959.09;2080314;28;20173;-71
2022/09/05 02:45:58;;;;;;;3.58;1.50;;;;;;;16.23;63.69;101949.13;2080435;28;20041;-73
2022/09/05 02:47:15;;;;;;;2.08;1.40;;;;;;;16.24;64.19;101955.44;2089061;28;26696;-71
2022/09/05 02:48:55;;;;;;;3.60;1.38;;;;;;;16.19;63.70;101946.56;2079210;28;31543;-72
2022/09/05 02:50:47;;;;;;;1.85;1.38;;;;;;;16.19;63.90;101957.38;2085728;28;26592;-72
2022/09/05 02:52:14;;;;;;;2.53;1.35;;;;;;;16.17;64.19;101959.25;2089051;28;20681;-73
2022/09/05 02:53:41;;;;;;;2.05;1.45;;;;;;;16.14;63.83;101948.53;2080660;28;20046;-72
2022/09/05 02:55:22;;;;;;;2.38;1.38;;;;;;;16.12;64.11;101950.41;2088219;28;20041;-73
2022/09/05 02:57:02;;;;;;;;;;;;;;;16.12;64.03;101958.50;2080480;28;20042;-73
2022/09/05 02:58:58;;;;;;;2.40;1.20;;;;;;;16.10;64.04;101957.66;2089575;28;19921;-73
2022/09/05 03:00:37;;;;;;;3.00;1.42;;;;;;;16.10;64.56;101950.44;2070069;28;35801;-72
2022/09/05 03:01:41;;;;;;;3.33;1.60;;;;;;;16.09;64.35;101951.34;2072429;28;26138;-73
2022/09/05 03:03:16;;;;;;;4.15;1.27;;;;;;;16.09;64.28;101955.88;2072123;28;32623;-73
2022/09/05 03:04:24;;;;;;;3.10;1.50;;;;;;;16.10;64.05;101957.66;2072008;28;31373;-71
2022/09/05 03:05:40;;;;;;;1.98;1.30;;;;;;;16.08;64.44;101954.09;2072187;28;24984;-71
2022/09/05 03:07:21;;;;;;;1.80;1.33;;;;;;;16.07;64.38;101958.63;2063590;28;29265;-71
2022/09/05 03:08:51;;;;;;;2.20;1.45;;;;;;;16.06;64.77;101954.16;2071294;28;25652;-71
2022/09/05 03:10:25;;;;;;;2.70;1.35;;;;;;;16.06;64.76;101950.56;2072681;28;20149;-72
2022/09/05 03:11:51;;;;;;;4.05;1.38;;;;;;;16.03;64.90;101959.66;2063443;28;20075;-71
2022/09/05 03:13:16;;;;;;;1.75;1.35;;;;;;;16.03;64.56;101956.94;2070939;28;24931;-71
2022/09/05 03:15:00;;;;;;;2.85;1.52;;;;;;;16.00;64.36;101957.91;2063282;28;30952;-71
2022/09/05 03:16:29;;;;;;;2.40;1.45;;;;;;;16.05;64.78;101963.19;2071573;28;30039;-71
2022/09/05 03:17:40;;;;;;;2.72;1.38;;;;;;;15.99;64.79;101956.16;2071892;28;29936;-71
2022/09/05 03:19:37;;;;;;;4.18;1.60;;;;;;;15.96;64.83;101949.97;2071981;28;35047;-71
2022/09/05 03:21:53;;;;;;;8.32;1.55;;;;;;;15.92;64.79;101951.88;2072362;28;29102;-71
2022/09/05 03:23:17;;;;;;;2.63;1.60;;;;;;;15.91;65.27;101944.69;2064800;28;29821;-72
2022/09/05 03:24:56;;;;;;;4.07;1.35;;;;;;;15.93;65.23;101945.50;2063131;28;38133;-71
2022/09/05 03:26:41;;;;;;;2.08;1.50;;;;;;;15.89;65.29;101948.38;2071418;28;31003;-71
2022/09/05 03:28:47;;;;;;;1.83;1.05;;;;;;;15.87;65.51;101940.31;2062891;28;38193;-71
2022/09/05 03:30:10;;;;;;;2.58;1.50;;;;;;;15.89;65.44;101943.84;2054449;28;24239;-71
2022/09/05 03:31:39;;;;;;;2.42;1.55;;;;;;;15.86;65.24;101941.22;2063446;28;31739;-71
2022/09/05 03:33:05;;;;;;;3.17;1.40;;;;;;;15.82;65.03;101935.03;2067385;28;30877;-70
2022/09/05 03:34:44;;;;;;;3.03;1.40;;;;;;;15.86;65.23;101937.63;2070525;28;34340;-71
2022/09/05 03:36:25;;;;;;;2.08;1.63;;;;;;;15.84;65.34;101940.38;2071492;28;32492;-71
2022/09/05 03:38:15;;;;;;;1.95;1.25;;;;;;;15.83;65.83;101938.63;2096355;22;20198;-68
2022/09/05 03:39:22;;;;;;;3.50;1.60;;;;;;;15.79;65.38;101943.22;2070126;28;26991;-68
2022/09/05 03:40:42;;;;;;;1.70;1.55;;;;;;;15.83;65.48;101935.94;2072001;28;26497;-68
2022/09/05 03:42:02;;;;;;;3.88;1.50;;;;;;;15.80;65.56;101936.88;2080070;28;27441;-68
2022/09/05 03:44:03;;;;;;;2.13;1.52;;;;;;;15.81;65.52;101945.91;2079893;28;32836;-68
2022/09/05 03:45:44;;;;;;;3.30;1.30;;;;;;;15.84;64.97;101940.38;2079745;28;27049;-67
2022/09/05 03:47:01;;;;;;;1.58;1.40;;;;;;;15.83;65.08;101954.84;2080591;28;20034;-67
2022/09/05 03:48:41;;;;;;;2.53;1.85;;;;;;;15.82;65.79;101947.66;2080245;28;31275;-68
2022/09/05 03:50:22;;;;;;;3.25;1.60;;;;;;;15.84;64.84;101953.88;2038672;29;28997;-68
2022/09/05 03:52:02;;;;;;;3.72;1.52;;;;;;;15.80;64.95;101955.78;2080274;28;20042;-68
2022/09/05 03:53:41;;;;;;;2.25;1.55;;;;;;;15.81;65.34;101954.88;2080297;28;20057;-67
2022/09/05 03:55:25;;;;;;;2.35;1.52;;;;;;;15.77;65.66;101955.91;2071682;28;20864;-68
2022/09/05 03:57:18;;;;;;;2.95;1.70;;;;;;;15.82;65.45;101959.31;2064000;28;20219;-67
2022/09/05 03:59:10;;;;;;;1.80;1.02;;;;;;;15.78;65.77;101959.47;2071186;28;30124;-67
2022/09/05 04:00:32;;;;;;;2.95;1.50;;;;;;;15.79;65.48;101955.81;2085780;28;39036;-67
2022/09/05 04:01:46;;;;;;;2.92;1.40;;;;;;;15.77;65.55;101955.91;2087873;28;28778;-67
2022/09/05 04:03:32;;;;;;;2.90;1.77;;;;;;;15.80;65.92;101954.91;2079781;28;20309;-66
2022/09/05 04:05:06;;;;;;;1.98;1.40;;;;;;;15.79;65.22;101953.13;2088582;28;20077;-67
2022/09/05 04:06:56;;;;;;;2.95;1.70;;;;;;;15.82;65.57;101963.84;2080426;28;20417;-67
2022/09/05 04:08:35;;;;;;;4.25;1.38;;;;;;;15.81;65.77;101962.97;2090775;28;20040;-67
2022/09/05 04:10:18;;;;;;;2.30;1.65;;;;;;;15.81;65.77;101962.09;2078965;28;28319;-67
2022/09/05 04:11:40;;;;;;;4.30;1.55;;;;;;;15.82;65.77;101969.25;2085042;28;33963;-67
2022/09/05 04:12:42;;;;;;;2.55;1.52;;;;;;;15.80;65.52;101965.72;2088930;28;20234;-67
2022/09/05 04:14:01;;;;;;;2.50;1.80;;;;;;;15.83;65.87;101963.81;2087437;28;32594;-66
2022/09/05 04:15:13;;;;;;;1.75;1.65;;;;;;;15.82;65.49;101962.03;2088131;28;26212;-67
2022/09/05 04:16:21;;;;;;;3.45;1.88;;;;;;;15.84;65.52;101970.09;2079215;28;31746;-67
2022/09/05 04:17:51;;;;;;;1.90;1.70;;;;;;;15.84;65.51;101964.69;2082854;28;21415;-67
2022/09/05 04:19:08;;;;;;;2.17;1.55;;;;;;;15.81;65.60;101962.97;2079166;28;34609;-67
2022/09/05 04:20:36;;;;;;;2.70;1.70;;;;;;;15.82;65.59;101964.72;2082165;28;35266;-66
2022/09/05 04:22:07;;;;;;;4.05;1.80;;;;;;;15.82;65.84;101966.56;2088114;28;30541;-67
2022/09/05 04:23:35;;;;;;;3.50;1.80;;;;;;;15.82;65.67;101962.03;2087916;28;33610;-67
2022/09/05 04:25:16;;;;;;;3.55;1.90;;;;;;;15.81;65.82;101960.28;2088126;28;27813;-67
2022/09/05 04:27:21;;;;;;;2.95;1.50;;;;;;;15.82;65.52;101959.31;2076823;28;20058;-66
2022/09/05 04:28:36;;;;;;;5.18;1.70;;;;;;;15.80;66.17;101963.88;2083768;28;38060;-66
2022/09/05 04:29:41;;;;;;;4.72;1.65;;;;;;;15.79;66.53;101958.53;2087537;28;30274;-66
2022/09/05 04:30:50;;;;;;;3.70;1.67;;;;;;;15.80;66.10;101960.31;2087512;28;33658;-66
2022/09/05 04:32:52;;;;;;;2.38;1.50;;;;;;;15.81;66.25;101956.69;2088247;28;28077;-67
2022/09/05 04:34:41;;;;;;;3.75;1.85;;;;;;;15.78;66.02;101959.47;2046274;28;21011;-66
2022/09/05 04:36:18;;;;;;;3.83;1.67;;;;;;;15.79;65.90;101963.94;2073697;28;30426;-66
2022/09/05 04:38:10;;;;;;;3.70;1.90;;;;;;;15.75;66.60;101967.66;2079230;28;34851;-66
2022/09/05 04:39:19;;;;;;;2.38;1.83;;;;;;;15.72;66.25;101967.69;2077080;28;24534;-66
2022/09/05 04:40:42;;;;;;;4.05;1.92;;;;;;;15.71;66.05;101966.81;2080008;28;28383;-66
2022/09/05 04:41:57;;;;;;;3.88;1.67;;;;;;;15.72;66.42;101971.31;2070690;28;25622;-66
2022/09/05 04:43:17;;;;;;;2.47;2.00;;;;;;;15.69;66.39;101970.50;2075222;28;33454;-67
2022/09/05 04:44:33;;;;;;;2.97;1.88;;;;;;;15.66;66.31;101969.63;2079202;28;39289;-67
2022/09/05 04:45:52;;;;;;;4.13;1.90;;;;;;;15.66;66.36;101966.06;2078972;28;38638;-67
2022/09/05 04:47:08;;;;;;;3.78;1.55;;;;;;;15.65;66.50;101975.09;2079386;28;27291;-67
2022/09/05 04:48:19;;;;;;;2.88;1.90;;;;;;;15.63;66.64;101975.16;2071237;28;23380;-67
2022/09/05 04:49:38;;;;;;;4.53;1.83;;;;;;;15.63;66.43;101975.16;2071985;28;28452;-67
2022/09/05 04:51:01;;;;;;;5.63;2.08;;;;;;;15.64;66.31;101974.19;2079428;28;20949;-66
2022/09/05 04:52:39;;;;;;;3.92;1.73;;;;;;;15.60;66.74;101980.63;2078731;28;38831;-67
2022/09/05 04:54:12;;;;;;;3.97;2.00;;;;;;;15.62;66.65;101985.97;2079878;28;20041;-67
2022/09/05 04:55:44;;;;;;;3.50;1.77;;;;;;;15.59;66.81;101976.13;2079227;28;33996;-67
2022/09/05 04:56:57;;;;;;;2.50;1.80;;;;;;;15.57;66.78;101980.69;2079822;28;29749;-66
2022/09/05 04:58:12;;;;;;;2.50;1.67;;;;;;;15.59;66.72;101983.34;2079387;28;24673;-67
2022/09/05 04:59:36;;;;;;;4.22;1.90;;;;;;;15.56;67.01;101987.03;2078939;28;23403;-67
2022/09/05 05:01:21;;;;;;;6.90;1.90;;;;;;;15.59;67.04;101995.03;2079528;28;20042;-66
2022/09/05 05:03:08;;;;;;;4.00;1.65;;;;;;;15.59;66.81;101994.16;2087896;28;20049;-65
2022/09/05 05:04:31;;;;;;;5.32;1.63;;;;;;;15.59;66.95;101986.94;2071294;28;20049;-66
2022/09/05 05:06:04;;;;;;;4.07;1.88;;;;;;;15.60;67.27;101994.13;2079975;28;20674;-66
2022/09/05 05:07:57;;;;;;;2.83;1.70;;;;;;;15.64;66.75;101992.22;2080603;28;20042;-66
2022/09/05 05:09:11;;;;;;;4.18;1.80;;;;;;;15.65;66.75;101992.19;2087243;28;25074;-68
2022/09/05 05:10:27;;;;;;;4.70;1.70;;;;;;;15.65;66.86;102000.28;2074322;28;20394;-68
2022/09/05 05:12:03;;;;;;;5.25;1.80;;;;;;;15.66;66.42;101991.22;2069025;28;20046;-67
2022/09/05 05:13:42;;;;;;;4.65;1.60;;;;;;;15.70;66.74;101997.44;2080139;28;20049;-67
2022/09/05 05:15:12;;;;;;;4.70;1.60;;;;;;;15.72;66.46;101994.69;2087628;28;20057;-67
2022/09/05 05:16:50;;;;;;;2.40;1.80;;;;;;;15.74;66.43;101998.22;2071454;28;20168;-67
2022/09/05 05:18:29;;;;;;;3.97;1.80;;;;;;;15.76;66.42;102004.53;2062977;28;20049;-66
2022/09/05 05:19:49;;;;;;;4.97;1.95;;;;;;;15.80;66.08;102003.53;2077787;28;20070;-67
2022/09/05 05:21:19;;;;;;;2.80;1.83;;;;;;;15.83;66.01;102004.31;2068284;28;20049;-68
2022/09/05 05:22:23;;;;;;;3.80;1.95;;;;;;;15.84;66.29;101999.78;2067427;28;20120;-67
2022/09/05 05:23:37;;;;;;;6.82;1.90;;;;;;;15.87;65.94;101994.31;2080051;28;31116;-67
2022/09/05 05:24:58;;;;;;;4.30;1.90;;;;;;;15.92;65.97;102011.28;2076817;28;22289;-67
2022/09/05 05:26:05;;;;;;;2.97;1.60;;;;;;;15.95;65.97;102002.19;2066203;28;23707;-66
2022/09/05 05:27:45;;;;;;;3.33;1.77;;;;;;;15.99;65.80;102007.47;2079667;28;32432;-66
2022/09/05 05:29:11;;;;;;;6.72;2.00;;;;;;;16.04;65.50;102004.63;2072724;28;31001;-67
2022/09/05 05:30:31;;;;;;;3.80;2.00;;;;;;;16.08;65.20;102011.75;2076080;28;28994;-66
2022/09/05 05:31:45;;;;;;;4.13;1.67;;;;;;;16.10;65.11;102012.56;2082529;28;39028;-67
2022/09/05 05:32:51;;;;;;;5.40;1.90;;;;;;;16.10;65.39;102009.00;2078504;28;35816;-67
2022/09/05 05:33:56;;;;;;;4.40;1.80;;;;;;;16.13;65.85;102014.28;2080747;28;25040;-67
2022/09/05 05:35:07;;;;;;;4.18;1.95;;;;;;;16.19;65.26;102011.44;2086547;28;26488;-67
2022/09/05 05:36:20;;;;;;;6.15;1.77;;;;;;;16.20;65.20;102008.69;2079047;28;30143;-67
2022/09/05 05:38:06;;;;;;;4.35;2.03;;;;;;;16.29;65.09;102009.31;2073294;28;29024;-67
2022/09/05 05:39:24;;;;;;;6.07;1.75;;;;;;;16.33;65.08;102011.91;2085391;28;20628;-68
2022/09/05 05:40:30;;;;;;;11.02;6.20;;;;;;;16.36;64.79;102009.09;2087693;28;35031;-67
2022/09/05 05:41:43;;;;;;;5.82;2.50;;;;;;;16.45;64.49;102017.88;2079027;28;20044;-67
2022/09/05 05:42:45;;;;;;;5.25;2.13;;;;;;;16.59;64.09;102012.91;2081212;28;25929;-67
2022/09/05 05:43:52;;;;;;;5.25;1.90;;;;;;;16.76;63.46;102018.69;2087392;28;30225;-67
2022/09/05 05:44:57;;;;;;;6.68;2.30;;;;;;;16.89;62.94;102012.94;2087155;28;38010;-67
2022/09/05 05:46:00;;;;;;;5.32;2.25;;;;;;;16.95;62.51;102018.13;2078483;28;31200;-67
2022/09/05 05:47:17;;;;;;;2.67;1.63;;;;;;;16.91;63.12;102008.34;2071234;28;27390;-67
2022/09/05 05:48:18;;;;;;;7.80;1.98;;;;;;;17.04;62.80;102017.81;2073217;28;30391;-67
2022/09/05 05:49:43;;;;;;;3.97;2.30;;;;;;;16.93;62.51;102015.47;2079985;28;30589;-67
2022/09/05 05:51:13;;;;;;;4.90;2.10;;;;;;;17.10;62.06;102022.16;2087438;28;29440;-67
2022/09/05 05:52:39;;;;;;;3.83;2.08;;;;;;;17.13;62.71;102019.34;2086899;28;36432;-67
2022/09/05 05:54:04;;;;;;;4.85;2.00;;;;;;;17.13;62.20;102012.09;2087517;28;23406;-67
2022/09/05 05:55:46;;;;;;;3.28;2.35;;;;;;;17.19;62.33;102016.44;2087715;28;25436;-67
2022/09/05 05:57:20;;;;;;;3.70;1.85;;;;;;;17.35;61.27;102019.50;2087650;28;35720;-67
2022/09/05 05:58:31;;;;;;;3.40;1.60;;;;;;;17.33;61.28;102013.25;2087600;28;31966;-68
2022/09/05 05:59:52;;;;;;;6.85;1.98;;;;;;;17.46;61.00;102020.03;2087840;28;20229;-67
2022/09/05 06:01:37;;;;;;;5.60;1.63;;;;;;;17.46;60.80;102020.03;2087831;28;21056;-67
2022/09/05 06:03:16;;;;;;;4.05;1.98;;;;;;;17.54;60.89;102023.34;2077795;28;29032;-67
2022/09/05 06:04:45;;;;;;;6.32;1.90;;;;;;;17.52;60.07;102024.34;2086700;28;39840;-67
2022/09/05 06:06:35;;;;;;;3.70;1.90;;;;;;;17.78;60.06;102020.72;2087909;28;23788;-67
2022/09/05 06:08:25;;;;;;;4.72;1.83;;;;;;;18.11;59.07;102023.19;2078870;28;27752;-67
2022/09/05 06:09:59;;;;;;;4.13;1.80;;;;;;;18.60;57.08;102015.88;2087357;28;20042;-67
2022/09/05 06:11:26;;;;;;;5.45;2.03;;;;;;;18.50;57.13;102025.28;2088185;28;20081;-68
2022/09/05 06:13:27;;;;;;;4.85;1.63;;;;;;;18.44;57.43;102025.53;2087965;28;20717;-67
2022/09/05 06:15:23;;;;;;;;;;;;;;;18.64;56.96;102014.78;2088481;28;20045;-68
2022/09/05 06:17:07;;;;;;;6.97;2.10;;;;;;;18.46;56.87;102024.53;2078247;28;27493;-68
2022/09/05 06:18:23;;;;;;;5.13;1.80;;;;;;;18.33;57.29;102016.94;2057929;28;20092;-69
2022/09/05 06:20:19;;;;;;;5.13;2.17;;;;;;;18.11;58.45;102028.59;2087822;28;20861;-68
2022/09/05 06:22:05;;;;;;;3.72;1.65;;;;;;;18.14;57.87;102023.03;2087906;28;20793;-69
2022/09/05 06:24:06;;;;;;;5.00;1.92;;;;;;;17.81;59.47;102031.44;2086866;28;33638;-69
2022/09/05 06:25:53;;;;;;;4.22;1.92;;;;;;;18.00;59.09;102030.81;2045105;28;38428;-68
2022/09/05 06:27:28;;;;;;;7.60;1.80;;;;;;;18.16;58.25;102026.63;2077925;28;33336;-68
2022/09/05 06:29:01;;;;;;;7.60;1.70;;;;;;;18.21;57.99;102024.59;2083046;28;40758;-69
2022/09/05 06:30:19;;;;;;;3.03;1.50;;;;;;;18.27;57.85;102027.09;2087314;28;33462;-68
2022/09/05 06:31:44;;;;;;;3.53;1.67;;;;;;;18.18;58.23;102027.44;2078697;28;20179;-68
2022/09/05 06:33:10;;;;;;;4.10;1.70;;;;;;;18.27;58.19;102026.22;2083308;28;29829;-67
2022/09/05 06:34:48;;;;;;;5.03;1.45;;;;;;;18.10;58.64;102024.13;2087335;28;30297;-69
2022/09/05 06:36:38;;;;;;;3.75;1.70;;;;;;;18.06;59.16;102026.06;2086737;28;24959;-67
2022/09/05 06:38:18;;;;;;;2.95;1.83;;;;;;;18.03;59.48;102025.28;2087089;28;32662;-67
2022/09/05 06:39:52;;;;;;;3.70;1.80;;;;;;;18.11;58.83;102031.31;2049535;28;20044;-68
2022/09/05 06:41:19;;;;;;;5.20;1.70;;;;;;;18.24;58.38;102031.75;2078447;28;31032;-67
2022/09/05 06:42:30;;;;;;;3.75;1.70;;;;;;;18.08;58.94;102034.13;2079147;28;20042;-67
2022/09/05 06:44:07;;;;;;;4.15;2.20;;;;;;;18.22;58.33;102028.22;2077872;28;26806;-67
2022/09/05 06:45:48;;;;;;;4.07;1.70;;;;;;;18.24;58.47;102029.03;2070048;28;25170;-67
2022/09/05 06:46:54;;;;;;;6.38;2.03;;;;;;;18.05;58.91;102028.81;2077305;28;20876;-67
2022/09/05 06:48:39;;;;;;;2.28;1.95;;;;;;;18.13;58.96;102026.72;2079162;28;20041;-67
2022/09/05 06:49:57;;;;;;;4.40;1.77;;;;;;;18.16;58.97;102032.03;2077016;28;33248;-67
2022/09/05 06:51:27;;;;;;;3.55;1.60;;;;;;;18.25;58.53;102025.34;2078870;28;31296;-67
2022/09/05 06:52:49;;;;;;;3.63;1.77;;;;;;;18.30;58.59;102031.50;2078901;28;28236;-67
2022/09/05 06:54:29;;;;;;;4.55;1.77;;;;;;;18.27;58.44;102028.91;2078489;28;32204;-66
2022/09/05 06:55:46;;;;;;;3.58;1.88;;;;;;;18.25;58.95;102034.41;2078876;28;37502;-67
2022/09/05 06:57:07;;;;;;;5.78;1.77;;;;;;;18.33;58.76;102022.38;2079151;28;27078;-67